createdAt,value
2023-01-27T00:01:33.687Z,13.83
2023-01-27T00:03:38.558Z,13.63
2023-01-27T00:05:40.811Z,13.77
2023-01-27T00:07:47.101Z,12.37
2023-01-27T00:09:49.262Z,12.37
2023-01-27T00:12:17.631Z,14.10
2023-01-27T00:14:19.801Z,13.57
2023-01-27T00:16:21.988Z,14.13
2023-01-27T00:18:24.719Z,14.03
2023-01-27T00:20:45.594Z,15.67
2023-01-27T00:23:06.283Z,13.50
2023-01-27T00:25:08.679Z,12.83
2023-01-27T00:27:11.173Z,11.53
2023-01-27T00:29:20.660Z,10.30
2023-01-27T00:31:41.506Z,9.97
2023-01-27T00:33:49.746Z,10.47
2023-01-27T00:36:07.231Z,11.20
2023-01-27T00:38:09.267Z,10.20
2023-01-27T00:40:13.698Z,10.03
2023-01-27T00:42:16.527Z,10.77
2023-01-27T00:44:18.818Z,11.33
2023-01-27T00:46:23.314Z,10.53
2023-01-27T00:48:25.559Z,11.07
2023-01-27T00:50:27.864Z,10.10
2023-01-27T00:52:30.118Z,10.27
2023-01-27T00:54:32.398Z,10.27
2023-01-27T00:56:35.271Z,10.80
2023-01-27T00:58:37.901Z,10.27
2023-01-27T01:00:40.592Z,12.03
2023-01-27T01:02:42.793Z,11.33
2023-01-27T01:04:45.072Z,10.93
2023-01-27T01:06:47.237Z,10.37
2023-01-27T01:08:55.581Z,10.27
2023-01-27T01:10:58.049Z,10.67
2023-01-27T01:13:00.262Z,10.57
2023-01-27T01:15:02.469Z,10.47
2023-01-27T01:17:04.681Z,9.57
2023-01-27T01:19:06.904Z,9.63
2023-01-27T01:21:11.228Z,10.53
2023-01-27T01:23:14.473Z,10.80
2023-01-27T01:25:16.746Z,10.97
2023-01-27T01:27:19.016Z,11.77
2023-01-27T01:29:21.193Z,11.83
2023-01-27T01:31:26.037Z,12.20
2023-01-27T01:33:28.495Z,11.17
2023-01-27T01:35:30.964Z,11.43
2023-01-27T01:37:33.303Z,11.70
2023-01-27T01:39:35.628Z,11.80
2023-01-27T01:41:37.963Z,10.80
2023-01-27T01:43:40.183Z,11.73
2023-01-27T01:45:50.475Z,11.40
2023-01-27T01:47:52.554Z,12.10
2023-01-27T01:49:54.943Z,12.73
2023-01-27T01:52:09.867Z,11.80
2023-01-27T01:54:14.883Z,13.77
2023-01-27T01:56:23.021Z,11.80
2023-01-27T01:58:28.399Z,11.00
2023-01-27T02:00:33.169Z,11.33
2023-01-27T02:02:37.175Z,11.63
2023-01-27T02:04:52.605Z,11.07
2023-01-27T02:07:10.671Z,11.40
2023-01-27T02:09:12.878Z,10.47
2023-01-27T02:11:15.045Z,11.67
2023-01-27T02:13:17.331Z,11.17
2023-01-27T02:15:21.707Z,12.70
2023-01-27T02:17:24.157Z,12.43
2023-01-27T02:19:49.289Z,12.07
2023-01-27T02:21:57.230Z,11.40
2023-01-27T02:24:02.160Z,12.43
2023-01-27T02:26:25.066Z,13.00
2023-01-27T02:28:29.515Z,10.47
2023-01-27T02:30:32.533Z,12.53
2023-01-27T02:32:34.949Z,12.17
2023-01-27T02:34:38.473Z,11.93
2023-01-27T02:36:56.662Z,12.40
2023-01-27T02:39:02.405Z,10.87
2023-01-27T02:41:37.698Z,12.03
2023-01-27T02:43:39.886Z,12.23
2023-01-27T02:45:42.638Z,12.57
2023-01-27T02:47:44.937Z,12.30
2023-01-27T02:49:47.223Z,13.87
2023-01-27T02:51:49.797Z,13.00
2023-01-27T02:53:52.220Z,13.93
2023-01-27T02:55:58.761Z,12.40
2023-01-27T02:58:00.895Z,11.53
2023-01-27T03:00:14.537Z,12.63
2023-01-27T03:02:23.082Z,12.40
2023-01-27T03:04:25.652Z,12.23
2023-01-27T03:06:28.098Z,12.07
2023-01-27T03:08:33.237Z,13.07
2023-01-27T03:10:35.552Z,11.70
2023-01-27T03:12:37.919Z,12.70
2023-01-27T03:14:58.828Z,12.37
2023-01-27T03:17:19.736Z,12.50
2023-01-27T03:19:22.419Z,12.00
2023-01-27T03:21:25.345Z,11.90
2023-01-27T03:23:28.072Z,12.63
2023-01-27T03:25:30.109Z,11.23
2023-01-27T03:27:32.635Z,11.13
2023-01-27T03:29:59.347Z,10.73
2023-01-27T03:32:01.988Z,11.20
2023-01-27T03:34:05.824Z,12.13
2023-01-27T03:36:32.987Z,11.60
2023-01-27T03:38:54.129Z,12.07
2023-01-27T03:41:15.173Z,11.17
2023-01-27T03:43:36.255Z,12.17
2023-01-27T03:46:00.227Z,12.53
2023-01-27T03:48:02.737Z,12.30
2023-01-27T03:50:11.346Z,12.40
2023-01-27T03:52:13.670Z,12.83
2023-01-27T03:54:16.130Z,13.80
2023-01-27T03:56:20.742Z,13.20
2023-01-27T03:58:26.085Z,14.90
2023-01-27T04:00:28.335Z,19.77
2023-01-27T04:02:52.351Z,22.23
2023-01-27T04:05:13.403Z,21.73
2023-01-27T04:07:20.649Z,19.37
2023-01-27T04:09:28.428Z,20.60
2023-01-27T04:11:49.527Z,31.03
2023-01-27T04:13:51.968Z,25.60
2023-01-27T04:15:57.006Z,28.70
2023-01-27T04:17:59.541Z,26.77
2023-01-27T04:20:03.575Z,27.43
2023-01-27T04:22:06.478Z,27.50
2023-01-27T04:24:19.291Z,23.83
2023-01-27T04:26:22.621Z,21.03
2023-01-27T04:28:41.803Z,22.30
2023-01-27T04:30:46.045Z,23.13
2023-01-27T04:32:48.424Z,22.30
2023-01-27T04:34:51.189Z,20.30
2023-01-27T04:36:54.256Z,23.47
2023-01-27T04:38:56.556Z,22.10
2023-01-27T04:40:58.580Z,23.10
2023-01-27T04:43:00.627Z,18.73
2023-01-27T04:45:02.880Z,17.57
2023-01-27T04:47:05.141Z,19.17
2023-01-27T04:49:08.280Z,17.17
2023-01-27T04:51:10.345Z,16.00
2023-01-27T04:53:12.590Z,14.50
2023-01-27T04:55:15.693Z,14.83
2023-01-27T04:57:18.581Z,15.10
2023-01-27T04:59:20.816Z,15.57
2023-01-27T05:01:23.310Z,21.37
2023-01-27T05:03:25.711Z,20.20
2023-01-27T05:05:27.971Z,17.37
2023-01-27T05:07:33.141Z,15.60
2023-01-27T05:09:35.533Z,15.30
2023-01-27T05:11:37.565Z,18.87
2023-01-27T05:13:41.057Z,20.47
2023-01-27T05:15:43.048Z,19.93
2023-01-27T05:17:45.460Z,16.43
2023-01-27T05:19:52.183Z,18.60
2023-01-27T05:21:54.385Z,19.47
2023-01-27T05:23:56.756Z,16.47
2023-01-27T05:26:03.947Z,17.33
2023-01-27T05:28:06.158Z,15.60
2023-01-27T05:30:08.876Z,16.67
2023-01-27T05:32:11.359Z,16.73
2023-01-27T05:34:13.439Z,16.33
2023-01-27T05:36:17.869Z,16.53
2023-01-27T05:38:20.274Z,16.83
2023-01-27T05:40:22.334Z,15.60
2023-01-27T05:42:24.302Z,16.20
2023-01-27T05:44:26.229Z,14.60
2023-01-27T05:46:33.843Z,15.43
2023-01-27T05:48:39.011Z,17.73
2023-01-27T05:50:41.177Z,16.63
2023-01-27T05:52:43.260Z,17.43
2023-01-27T05:54:45.572Z,15.87
2023-01-27T05:56:47.656Z,16.97
2023-01-27T05:58:50.145Z,16.20
2023-01-27T06:00:53.147Z,16.90
2023-01-27T06:02:55.294Z,17.00
2023-01-27T06:04:57.486Z,16.87
2023-01-27T06:07:01.028Z,18.70
2023-01-27T06:09:03.619Z,20.50
2023-01-27T06:11:06.360Z,20.30
2023-01-27T06:13:08.446Z,17.90
2023-01-27T06:15:11.914Z,16.80
2023-01-27T06:17:15.336Z,16.80
2023-01-27T06:19:17.488Z,16.97
2023-01-27T06:21:21.151Z,16.40
2023-01-27T06:23:23.387Z,15.70
2023-01-27T06:25:25.458Z,16.23
2023-01-27T06:27:27.646Z,14.67
2023-01-27T06:29:31.122Z,15.03
2023-01-27T06:31:33.955Z,17.47
2023-01-27T06:33:37.041Z,16.93
2023-01-27T06:35:41.059Z,21.93
2023-01-27T06:37:45.310Z,20.20
2023-01-27T06:39:52.195Z,20.60
2023-01-27T06:41:56.701Z,19.17
2023-01-27T06:43:58.912Z,18.03
2023-01-27T06:46:03.003Z,20.00
2023-01-27T06:48:08.690Z,21.40
2023-01-27T06:50:12.395Z,20.90
2023-01-27T06:52:17.083Z,18.90
2023-01-27T06:54:19.622Z,18.57
2023-01-27T06:56:21.815Z,17.17
2023-01-27T06:58:24.126Z,17.07
2023-01-27T07:00:26.608Z,17.00
2023-01-27T07:02:28.721Z,16.80
2023-01-27T07:04:31.375Z,15.53
2023-01-27T07:06:33.714Z,16.13
2023-01-27T07:08:35.974Z,17.53
2023-01-27T07:10:39.187Z,17.23
2023-01-27T07:12:41.438Z,15.97
2023-01-27T07:14:43.658Z,15.67
2023-01-27T07:24:01.463Z,24.10
2023-01-27T07:26:07.811Z,17.63
2023-01-27T07:28:18.083Z,18.60
2023-01-27T07:30:20.862Z,19.40
2023-01-27T07:32:23.407Z,17.43
2023-01-27T07:34:25.583Z,16.67
2023-01-27T07:36:27.675Z,17.93
2023-01-27T07:38:29.811Z,17.33
2023-01-27T07:40:32.047Z,20.83
2023-01-27T07:42:34.106Z,19.80
2023-01-27T07:44:36.249Z,18.23
2023-01-27T07:46:38.343Z,16.80
2023-01-27T07:48:40.824Z,13.80
2023-01-27T07:50:42.974Z,14.57
2023-01-27T07:52:44.940Z,15.23
2023-01-27T07:54:47.222Z,14.40
2023-01-27T07:56:49.524Z,15.73
2023-01-27T07:58:56.427Z,17.17
2023-01-27T08:00:58.523Z,17.80
2023-01-27T08:03:02.610Z,17.43
2023-01-27T08:05:04.904Z,18.73
2023-01-27T08:07:07.386Z,17.57
2023-01-27T08:09:09.668Z,16.50
2023-01-27T08:11:14.454Z,16.30
2023-01-27T08:13:16.687Z,16.37
2023-01-27T08:15:19.388Z,18.83
2023-01-27T08:17:21.647Z,16.67
2023-01-27T08:19:24.090Z,18.80
2023-01-27T08:21:27.385Z,18.77
2023-01-27T08:23:29.942Z,17.53
2023-01-27T08:25:33.017Z,16.27
2023-01-27T08:27:35.353Z,15.43
2023-01-27T08:29:40.605Z,17.20
2023-01-27T08:31:43.004Z,15.40
2023-01-27T08:33:49.958Z,16.10
2023-01-27T08:35:54.900Z,18.90
2023-01-27T08:37:56.933Z,18.30
2023-01-27T08:39:58.955Z,15.90
2023-01-27T08:42:03.414Z,16.37
2023-01-27T08:44:06.157Z,15.37
2023-01-27T08:46:09.600Z,15.80
2023-01-27T08:48:12.419Z,15.70
2023-01-27T08:50:14.772Z,14.97
2023-01-27T08:52:19.931Z,15.83
2023-01-27T08:54:22.283Z,17.27
2023-01-27T08:56:24.712Z,29.90
2023-01-27T08:58:27.057Z,31.37
2023-01-27T09:00:29.192Z,28.33
2023-01-27T09:02:31.911Z,25.13
2023-01-27T09:04:35.911Z,26.40
2023-01-27T09:06:38.282Z,25.63
2023-01-27T09:08:41.672Z,23.57
2023-01-27T09:10:43.855Z,19.63
2023-01-27T09:12:46.012Z,18.40
2023-01-27T09:14:48.176Z,14.93
2023-01-27T09:16:50.228Z,12.60
2023-01-27T09:18:52.758Z,13.13
2023-01-27T09:20:55.170Z,9.77
2023-01-27T09:22:57.889Z,9.37
2023-01-27T09:25:00.541Z,9.27
2023-01-27T09:27:02.676Z,13.17
2023-01-27T09:29:04.713Z,13.93
2023-01-27T09:31:09.743Z,10.10
2023-01-27T09:33:16.056Z,13.00
2023-01-27T09:35:18.581Z,10.47
2023-01-27T09:37:21.101Z,16.10
2023-01-27T09:39:24.309Z,15.17
2023-01-27T09:41:38.358Z,10.73
2023-01-27T09:44:08.281Z,9.03
2023-01-27T09:46:35.152Z,9.57
2023-01-27T09:48:43.120Z,9.60
2023-01-27T09:51:25.322Z,10.93
2023-01-27T09:54:12.049Z,26.53
2023-01-27T09:56:28.617Z,16.57
2023-01-27T09:58:42.611Z,28.37
2023-01-27T10:01:18.631Z,28.27
2023-01-27T10:03:43.524Z,23.97
2023-01-27T10:05:53.311Z,37.93
2023-01-27T10:08:07.656Z,33.63
2023-01-27T10:10:37.685Z,27.47
2023-01-27T10:12:56.909Z,19.23
2023-01-27T10:15:07.781Z,16.10
2023-01-27T10:17:31.461Z,14.27
2023-01-27T10:19:51.773Z,16.83
2023-01-27T10:22:12.806Z,14.30
2023-01-27T10:24:48.083Z,13.23
2023-01-27T10:26:54.887Z,14.70
2023-01-27T10:29:30.865Z,15.50
2023-01-27T10:31:37.539Z,15.60
2023-01-27T10:33:54.578Z,13.87
2023-01-27T10:36:08.000Z,16.60
2023-01-27T10:38:13.149Z,34.40
2023-01-27T10:40:50.117Z,30.40
2023-01-27T10:42:58.601Z,30.03
2023-01-27T10:45:06.804Z,31.10
2023-01-27T10:47:16.002Z,28.53
2023-01-27T10:49:36.074Z,27.20
2023-01-27T10:51:45.896Z,26.27
2023-01-27T10:54:04.441Z,14.77
2023-01-27T10:56:18.258Z,21.43
2023-01-27T10:58:48.347Z,24.43
2023-01-27T11:01:19.943Z,19.43
2023-01-27T11:03:33.904Z,17.73
2023-01-27T11:05:42.529Z,14.40
2023-01-27T11:08:00.210Z,20.00
2023-01-27T11:10:14.386Z,25.70
2023-01-27T11:12:21.245Z,20.27
2023-01-27T11:14:32.635Z,16.27
2023-01-27T11:16:40.617Z,10.53
2023-01-27T11:18:46.454Z,6.03
2023-01-27T11:20:55.413Z,5.67
2023-01-27T11:23:10.089Z,3.70
2023-01-27T11:25:22.668Z,3.33
2023-01-27T11:27:33.525Z,3.40
2023-01-27T11:30:01.582Z,3.97
2023-01-27T11:32:25.336Z,3.57
2023-01-27T11:34:36.448Z,4.10
2023-01-27T11:36:38.977Z,4.27
2023-01-27T11:38:41.073Z,4.00
2023-01-27T11:40:45.618Z,3.70
2023-01-27T11:42:49.641Z,4.10
2023-01-27T11:44:56.387Z,3.10
2023-01-27T11:46:58.961Z,4.17
2023-01-27T11:49:02.682Z,4.30
2023-01-27T11:51:06.078Z,3.97
2023-01-27T11:53:21.403Z,5.77
2023-01-27T11:55:28.103Z,6.13
2023-01-27T11:57:30.491Z,5.53
2023-01-27T11:59:37.969Z,7.20
2023-01-27T12:01:48.446Z,6.57
2023-01-27T12:04:08.278Z,6.23
2023-01-27T12:06:27.198Z,5.10
2023-01-27T12:08:46.837Z,8.17
2023-01-27T12:10:48.813Z,7.90
2023-01-27T12:12:51.362Z,5.50
2023-01-27T12:14:55.003Z,4.50
2023-01-27T12:17:04.141Z,5.53
2023-01-27T12:19:22.991Z,5.90
2023-01-27T12:21:38.439Z,4.70
2023-01-27T12:23:52.915Z,4.87
2023-01-27T12:26:09.278Z,5.00
2023-01-27T12:28:49.719Z,5.43
2023-01-27T12:30:54.538Z,7.47
2023-01-27T12:32:59.630Z,9.27
2023-01-27T12:35:03.251Z,8.80
2023-01-27T12:37:08.387Z,9.07
2023-01-27T12:39:39.874Z,15.40
2023-01-27T12:41:43.235Z,15.30
2023-01-27T12:44:01.829Z,7.50
2023-01-27T12:46:08.804Z,6.53
2023-01-27T12:48:14.003Z,5.60
2023-01-27T12:50:33.653Z,7.13
2023-01-27T12:52:35.674Z,5.97
2023-01-27T12:54:38.028Z,4.57
2023-01-27T12:56:40.230Z,10.67
2023-01-27T12:58:55.785Z,10.00
2023-01-27T13:01:00.282Z,7.00
2023-01-27T13:03:12.486Z,6.80
2023-01-27T13:05:19.293Z,5.83
2023-01-27T13:07:28.478Z,4.70
2023-01-27T13:09:45.578Z,6.50
2023-01-27T13:11:47.830Z,5.10
2023-01-27T13:13:51.540Z,5.60
2023-01-27T13:16:14.997Z,6.90
2023-01-27T13:18:23.923Z,7.67
2023-01-27T13:20:43.413Z,8.97
2023-01-27T13:23:24.255Z,11.93
2023-01-27T13:25:39.243Z,11.40
2023-01-27T13:27:41.727Z,10.77
2023-01-27T13:29:54.855Z,10.63
2023-01-27T13:32:04.389Z,9.97
2023-01-27T13:34:18.905Z,10.47
2023-01-27T13:36:28.263Z,9.50
2023-01-27T13:38:52.802Z,8.63
2023-01-27T13:40:54.796Z,9.73
2023-01-27T13:43:09.323Z,10.33
2023-01-27T13:45:22.053Z,9.23
2023-01-27T13:47:29.189Z,10.37
2023-01-27T13:49:50.378Z,10.47
2023-01-27T13:51:52.470Z,10.93
2023-01-27T13:54:03.911Z,11.20
2023-01-27T13:56:06.041Z,11.23
2023-01-27T13:58:39.703Z,11.00
2023-01-27T14:01:01.876Z,12.33
2023-01-27T14:03:46.250Z,9.30
2023-01-27T14:05:57.058Z,10.43
2023-01-27T14:08:20.724Z,12.50
2023-01-27T14:10:35.324Z,12.37
2023-01-27T14:12:58.128Z,10.93
2023-01-27T14:15:21.189Z,10.63
2023-01-27T14:17:30.340Z,9.53
2023-01-27T14:20:01.450Z,8.50
2023-01-27T14:22:33.895Z,8.00
2023-01-27T14:24:53.098Z,7.63
2023-01-27T14:27:10.264Z,9.30
2023-01-27T14:29:33.900Z,9.53
2023-01-27T14:31:56.550Z,10.20
2023-01-27T14:34:34.095Z,14.83
2023-01-27T14:36:45.083Z,19.77
2023-01-27T14:39:01.101Z,15.87
2023-01-27T14:41:18.322Z,12.97
2023-01-27T14:43:39.559Z,13.73
2023-01-27T14:45:50.907Z,14.40
2023-01-27T14:48:17.385Z,16.87
2023-01-27T14:50:26.610Z,15.67
2023-01-27T14:53:20.795Z,17.60
2023-01-27T14:55:33.511Z,28.60
2023-01-27T14:57:55.984Z,28.40
2023-01-27T15:00:33.178Z,28.03
2023-01-27T15:03:03.096Z,20.93
2023-01-27T15:05:31.164Z,16.00
2023-01-27T15:07:41.854Z,13.60
2023-01-27T15:10:10.793Z,21.47
2023-01-27T15:12:37.944Z,22.00
2023-01-27T15:14:59.374Z,17.50
2023-01-27T15:17:14.773Z,16.00
2023-01-27T15:19:44.809Z,13.90
2023-01-27T15:22:34.144Z,12.10
2023-01-27T15:24:59.348Z,10.33
2023-01-27T15:27:04.333Z,11.53
2023-01-27T15:29:07.552Z,12.00
2023-01-27T15:31:16.733Z,14.90
2023-01-27T15:33:53.003Z,14.53
2023-01-27T15:36:27.119Z,17.23
2023-01-27T15:38:34.629Z,15.43
2023-01-27T15:41:21.505Z,15.57
2023-01-27T15:43:25.663Z,16.63
2023-01-27T15:45:38.029Z,16.90
2023-01-27T15:47:41.882Z,15.00
2023-01-27T15:49:48.540Z,12.50
2023-01-27T15:51:54.800Z,11.10
2023-01-27T15:54:00.240Z,14.77
2023-01-27T15:56:03.230Z,14.63
2023-01-27T15:58:54.840Z,15.83
2023-01-27T16:00:58.869Z,15.97
2023-01-27T16:03:04.904Z,17.77
2023-01-27T16:05:27.133Z,16.63
2023-01-27T16:07:32.951Z,16.33
2023-01-27T16:09:46.126Z,16.57
2023-01-27T16:12:02.615Z,16.93
2023-01-27T16:14:17.437Z,18.60
2023-01-27T16:16:19.524Z,17.77
2023-01-27T16:18:26.469Z,19.33
2023-01-27T16:20:54.758Z,28.77
2023-01-27T16:23:02.808Z,28.37
2023-01-27T16:25:17.677Z,25.33
2023-01-27T16:27:52.224Z,25.80
2023-01-27T16:30:22.548Z,25.10
2023-01-27T16:32:35.696Z,27.63
2023-01-27T16:34:46.853Z,22.23
2023-01-27T16:37:02.150Z,28.57
2023-01-27T16:39:26.082Z,35.97
2023-01-27T16:41:30.957Z,38.93
2023-01-27T16:43:43.611Z,29.30
2023-01-27T16:45:49.270Z,27.57
2023-01-27T16:48:05.647Z,38.20
2023-01-27T16:50:45.889Z,37.90
2023-01-27T16:52:48.072Z,37.03
2023-01-27T16:54:52.484Z,33.20
2023-01-27T16:56:55.150Z,33.50
2023-01-27T16:59:02.140Z,31.97
2023-01-27T17:01:04.928Z,30.20
2023-01-27T17:03:16.515Z,28.13
2023-01-27T17:05:19.960Z,27.17
2023-01-27T17:07:22.623Z,25.33
2023-01-27T17:09:32.139Z,25.93
2023-01-27T17:11:34.309Z,27.17
2023-01-27T17:14:01.305Z,24.87
2023-01-27T17:16:06.467Z,25.47
2023-01-27T17:18:11.960Z,28.90
2023-01-27T17:20:23.565Z,31.07
2023-01-27T17:22:42.452Z,29.37
2023-01-27T17:24:52.970Z,31.70
2023-01-27T17:27:05.794Z,29.27
2023-01-27T17:29:07.698Z,33.60
2023-01-27T17:31:17.832Z,35.17
2023-01-27T17:33:22.023Z,32.93
2023-01-27T17:35:30.769Z,35.70
2023-01-27T17:37:33.478Z,35.70
2023-01-27T17:39:38.123Z,37.17
2023-01-27T17:41:40.128Z,35.10
2023-01-27T17:43:44.899Z,33.00
2023-01-27T17:45:47.617Z,30.30
2023-01-27T17:47:50.525Z,30.03
2023-01-27T17:49:52.624Z,34.00
2023-01-27T17:51:59.579Z,32.10
2023-01-27T17:54:13.624Z,27.60
2023-01-27T17:56:23.149Z,27.27
2023-01-27T17:58:29.531Z,26.90
2023-01-27T18:00:40.325Z,30.47
2023-01-27T18:02:54.104Z,26.83
2023-01-27T18:05:04.520Z,25.47
2023-01-27T18:07:06.594Z,28.57
2023-01-27T18:09:27.106Z,26.10
2023-01-27T18:11:32.197Z,24.30
2023-01-27T18:13:37.407Z,23.53
2023-01-27T18:15:42.855Z,23.60
2023-01-27T18:17:57.709Z,27.77
2023-01-27T18:19:59.871Z,33.03
2023-01-27T18:22:07.308Z,30.90
2023-01-27T18:24:21.308Z,25.33
2023-01-27T18:26:43.226Z,20.77
2023-01-27T18:28:49.053Z,23.23
2023-01-27T18:30:51.556Z,21.13
2023-01-27T18:33:01.826Z,20.03
2023-01-27T18:35:27.949Z,24.07
2023-01-27T18:37:33.291Z,20.30
2023-01-27T18:39:38.773Z,18.40
2023-01-27T18:41:47.287Z,18.00
2023-01-27T18:43:49.501Z,20.50
2023-01-27T18:45:51.477Z,19.40
2023-01-27T18:47:54.172Z,22.23
2023-01-27T18:49:56.399Z,21.47
2023-01-27T18:51:58.354Z,41.27
2023-01-27T18:54:00.560Z,58.77
2023-01-27T18:56:04.549Z,62.70
2023-01-27T18:58:06.684Z,45.10
2023-01-27T19:00:11.926Z,38.80
2023-01-27T19:02:18.480Z,59.40
2023-01-27T19:04:22.036Z,49.07
2023-01-27T19:06:24.121Z,59.33
2023-01-27T19:08:27.363Z,59.00
2023-01-27T19:10:32.334Z,73.13
2023-01-27T19:12:34.478Z,67.70
2023-01-27T19:14:37.096Z,71.80
2023-01-27T19:16:39.194Z,59.60
2023-01-27T19:18:42.197Z,59.57
2023-01-27T19:20:44.264Z,50.30
2023-01-27T19:22:47.875Z,42.50
2023-01-27T19:24:50.740Z,42.67
2023-01-27T19:26:52.759Z,45.50
2023-01-27T19:28:57.359Z,46.03
2023-01-27T19:31:00.279Z,36.83
2023-01-27T19:33:03.203Z,35.77
2023-01-27T19:35:05.865Z,36.00
2023-01-27T19:37:18.581Z,33.93
2023-01-27T19:39:20.759Z,37.13
2023-01-27T19:41:22.908Z,34.83
2023-01-27T19:43:24.950Z,35.97
2023-01-27T19:45:28.325Z,32.40
2023-01-27T19:47:30.236Z,30.23
2023-01-27T19:49:32.300Z,28.93
2023-01-27T19:51:34.444Z,29.40
2023-01-27T19:53:38.660Z,26.60
2023-01-27T19:55:41.326Z,29.20
2023-01-27T19:57:44.606Z,27.73
2023-01-27T19:59:46.862Z,29.30
2023-01-27T20:01:49.147Z,45.70
2023-01-27T20:03:52.365Z,44.27
2023-01-27T20:05:54.493Z,41.57
2023-01-27T20:07:58.602Z,37.97
2023-01-27T20:10:00.673Z,36.37
2023-01-27T20:12:02.734Z,39.03
2023-01-27T20:14:19.384Z,44.37
2023-01-27T20:16:22.775Z,36.77
2023-01-27T20:18:24.874Z,35.77
2023-01-27T20:20:27.649Z,33.40
2023-01-27T20:22:30.003Z,27.40
2023-01-27T20:24:32.246Z,27.30
2023-01-27T20:26:35.034Z,28.00
2023-01-27T20:28:40.003Z,28.50
2023-01-27T20:30:43.317Z,27.00
2023-01-27T20:32:45.590Z,27.30
2023-01-27T20:34:47.985Z,24.50
2023-01-27T20:36:49.968Z,24.90
2023-01-27T20:38:53.088Z,24.33
2023-01-27T20:40:55.157Z,25.30
2023-01-27T20:42:57.375Z,23.40
2023-01-27T20:44:59.503Z,23.27
2023-01-27T20:47:01.635Z,26.47
2023-01-27T20:49:03.688Z,21.93
2023-01-27T20:51:09.384Z,23.10
2023-01-27T20:53:11.401Z,25.47
2023-01-27T20:55:14.933Z,29.43
2023-01-27T20:57:20.357Z,27.33
2023-01-27T20:59:22.399Z,27.50
2023-01-27T21:01:24.641Z,25.50
2023-01-27T21:03:27.002Z,29.37
2023-01-27T21:05:29.085Z,29.83
2023-01-27T21:07:31.273Z,26.30
2023-01-27T21:09:33.240Z,26.13
2023-01-27T21:11:35.299Z,25.83
2023-01-27T21:13:37.851Z,24.70
2023-01-27T21:15:47.437Z,28.13
2023-01-27T21:17:50.295Z,28.47
2023-01-27T21:19:52.506Z,30.27
2023-01-27T21:21:54.790Z,29.23
2023-01-27T21:24:00.599Z,30.47
2023-01-27T21:26:09.677Z,28.50
2023-01-27T21:28:11.868Z,25.37
2023-01-27T21:30:14.241Z,26.67
2023-01-27T21:32:16.457Z,33.07
2023-01-27T21:34:18.544Z,43.37
2023-01-27T21:36:20.545Z,55.83
2023-01-27T21:38:22.689Z,54.53
2023-01-27T21:40:25.288Z,45.97
2023-01-27T21:42:46.388Z,50.27
2023-01-27T21:45:07.040Z,43.13
2023-01-27T21:47:11.778Z,38.60
2023-01-27T21:49:14.559Z,34.73
2023-01-27T21:51:17.082Z,34.23
2023-01-27T21:53:19.183Z,34.77
2023-01-27T21:55:27.404Z,32.77
2023-01-27T21:57:29.899Z,38.37
2023-01-27T21:59:34.433Z,31.23
2023-01-27T22:01:36.627Z,29.77
2023-01-27T22:03:38.941Z,29.50
2023-01-27T22:05:41.238Z,33.07
2023-01-27T22:07:43.283Z,38.33
2023-01-27T22:09:45.642Z,34.03
2023-01-27T22:11:48.085Z,32.13
2023-01-27T22:13:50.222Z,34.93
2023-01-27T22:15:52.616Z,32.73
2023-01-27T22:17:55.857Z,32.50
2023-01-27T22:19:57.951Z,28.10
2023-01-27T22:22:00.048Z,28.37
2023-01-27T22:24:02.814Z,28.60
2023-01-27T22:26:09.200Z,30.37
2023-01-27T22:28:11.359Z,27.90
2023-01-27T22:30:15.883Z,28.50
2023-01-27T22:32:18.211Z,28.17
2023-01-27T22:34:20.752Z,28.07
2023-01-27T22:36:23.313Z,29.60
2023-01-27T22:38:25.636Z,28.33
2023-01-27T22:40:28.353Z,26.13
2023-01-27T22:42:30.579Z,26.57
2023-01-27T22:44:32.927Z,29.30
2023-01-27T22:46:35.328Z,31.50
2023-01-27T22:48:37.806Z,29.23
2023-01-27T22:50:40.849Z,27.50
2023-01-27T22:52:43.109Z,27.33
2023-01-27T22:54:45.536Z,28.37
2023-01-27T22:56:47.923Z,35.60
2023-01-27T22:58:50.296Z,33.73
2023-01-27T23:00:52.927Z,29.43
2023-01-27T23:02:55.133Z,24.30
2023-01-27T23:04:57.873Z,27.60
2023-01-27T23:07:00.083Z,25.67
2023-01-27T23:09:02.205Z,24.30
2023-01-27T23:11:06.899Z,24.83
2023-01-27T23:13:09.052Z,21.23
2023-01-27T23:15:12.335Z,22.73
2023-01-27T23:17:15.016Z,22.63
2023-01-27T23:19:17.673Z,21.93
2023-01-27T23:21:19.655Z,22.23
2023-01-27T23:23:23.439Z,21.27
2023-01-27T23:25:25.907Z,22.17
2023-01-27T23:27:29.094Z,21.73
2023-01-27T23:29:31.788Z,22.60
2023-01-27T23:31:34.316Z,21.27
2023-01-27T23:33:41.128Z,24.30
2023-01-27T23:35:44.035Z,20.20
2023-01-27T23:37:46.332Z,21.63
2023-01-27T23:39:49.906Z,22.13
2023-01-27T23:41:52.359Z,23.77
2023-01-27T23:43:56.317Z,21.50
2023-01-27T23:45:59.212Z,18.00
2023-01-27T23:48:01.473Z,20.37
2023-01-27T23:50:06.275Z,17.63
2023-01-27T23:52:09.209Z,18.00
2023-01-27T23:54:11.379Z,19.23
2023-01-27T23:56:16.296Z,19.33
2023-01-27T23:58:19.156Z,20.57
